Time;durP1;ratioP1;P1;durP2;ratioP2;P2;SDS_P1;SDS_P2;PMS_P1;PMS_P2;Temp;Humidity;BMP_temperature;BMP_pressure;BME280_temperature;BME280_humidity;BME280_pressure;Samples;Min_cycle;Max_cycle;Signal;HPM_P1;HPM_P2
2021/08/08 00:01:44;;;;;;;3.70;0.50;;;;;;;;;;4898448;29;20048;-44
2021/08/08 00:04:11;;;;;;;3.13;0.50;;;;;;;;;;4888473;29;20045;-42
2021/08/08 00:06:39;;;;;;;0.40;0.40;;;;;;;;;;4879251;29;20045;-46
2021/08/08 00:09:06;;;;;;;0.70;0.35;;;;;;;;;;4879360;29;20483;-43
2021/08/08 00:11:33;;;;;;;0.60;0.50;;;;;;;;;;4879476;29;20052;-46
2021/08/08 00:14:01;;;;;;;0.65;0.63;;;;;;;;;;4878887;29;20053;-45
2021/08/08 00:16:29;;;;;;;1.63;0.68;;;;;;;;;;4881338;29;20079;-47
2021/08/08 00:18:57;;;;;;;2.67;0.52;;;;;;;;;;4879210;29;20487;-43
2021/08/08 00:21:23;;;;;;;1.40;0.70;;;;;;;;;;4879580;29;20045;-42
2021/08/08 00:23:50;;;;;;;1.75;0.50;;;;;;;;;;4893235;29;20052;-42
2021/08/08 00:26:17;;;;;;;3.33;0.52;;;;;;;;;;4896040;29;20416;-45
2021/08/08 00:28:47;;;;;;;3.05;0.60;;;;;;;;;;4897896;29;20075;-43
2021/08/08 00:31:16;;;;;;;2.17;0.55;;;;;;;;;;4896452;29;20493;-42
2021/08/08 00:33:43;;;;;;;1.58;0.55;;;;;;;;;;4891747;29;20045;-44
2021/08/08 00:36:11;;;;;;;2.90;0.50;;;;;;;;;;4876285;29;20399;-42
2021/08/08 00:38:38;;;;;;;1.70;0.60;;;;;;;;;;4877305;29;20436;-42
2021/08/08 00:41:05;;;;;;;1.45;1.20;;;;;;;;;;4891683;29;20132;-42
2021/08/08 00:43:32;;;;;;;1.35;1.20;;;;;;;;;;4896230;29;20459;-42
2021/08/08 00:45:59;;;;;;;0.70;0.70;;;;;;;;;;4891796;29;20546;-44
2021/08/08 00:48:26;;;;;;;1.40;0.50;;;;;;;;;;4877563;29;20041;-42
2021/08/08 00:50:53;;;;;;;0.40;0.38;;;;;;;;;;4878677;29;20089;-43
2021/08/08 00:53:36;;;;;;;0.95;0.38;;;;;;;;;;4877301;29;20112;-43
2021/08/08 00:56:03;;;;;;;1.92;0.50;;;;;;;;;;4884224;29;20041;-42
2021/08/08 00:58:33;;;;;;;2.17;0.60;;;;;;;;;;4892737;29;20061;-42
2021/08/08 01:01:02;;;;;;;2.22;0.50;;;;;;;;;;4877373;29;20072;-42
2021/08/08 01:03:30;;;;;;;0.90;0.60;;;;;;;;;;4877237;29;20444;-46
2021/08/08 01:06:10;;;;;;;2.03;0.50;;;;;;;;;;4876323;29;20120;-43
2021/08/08 01:08:41;;;;;;;1.27;0.52;;;;;;;;;;4877235;29;20048;-43
2021/08/08 01:11:09;;;;;;;1.58;0.63;;;;;;;;;;4876951;29;20462;-46
2021/08/08 01:13:37;;;;;;;1.75;0.60;;;;;;;;;;4876916;29;20463;-48
2021/08/08 01:16:05;;;;;;;1.05;0.70;;;;;;;;;;4876797;29;20120;-43
2021/08/08 01:18:31;;;;;;;0.98;0.80;;;;;;;;;;4878272;29;20059;-44
2021/08/08 01:21:00;;;;;;;0.70;0.60;;;;;;;;;;4876761;29;20089;-43
2021/08/08 01:23:31;;;;;;;1.35;0.68;;;;;;;;;;4876502;29;20136;-43
2021/08/08 01:25:58;;;;;;;2.47;0.45;;;;;;;;;;4876078;29;20045;-43
2021/08/08 01:28:25;;;;;;;0.70;0.55;;;;;;;;;;4878057;29;20540;-42
2021/08/08 01:30:52;;;;;;;1.23;0.50;;;;;;;;;;4877977;29;20045;-45
2021/08/08 01:33:18;;;;;;;1.55;0.40;;;;;;;;;;4876340;29;20137;-43
2021/08/08 01:35:56;;;;;;;0.93;0.50;;;;;;;;;;4876032;29;20080;-45
2021/08/08 01:38:28;;;;;;;0.55;0.50;;;;;;;;;;4876625;29;20471;-47
2021/08/08 01:41:01;;;;;;;1.65;1.00;;;;;;;;;;4876570;29;20043;-42
2021/08/08 01:43:41;;;;;;;2.13;1.00;;;;;;;;;;4861522;29;20120;-46
2021/08/08 01:46:08;;;;;;;2.60;1.00;;;;;;;;;;4875645;29;20168;-46
2021/08/08 01:48:45;;;;;;;1.15;0.50;;;;;;;;;;4877559;29;20069;-44
2021/08/08 01:51:15;;;;;;;2.30;0.50;;;;;;;;;;4876458;29;20049;-42
2021/08/08 01:53:42;;;;;;;0.88;0.50;;;;;;;;;;4876230;29;20119;-47
2021/08/08 01:56:11;;;;;;;1.63;0.50;;;;;;;;;;4876249;29;20255;-43
2021/08/08 01:58:39;;;;;;;0.65;0.47;;;;;;;;;;4876448;29;20048;-47
2021/08/08 02:01:11;;;;;;;0.63;0.50;;;;;;;;;;4876148;29;20049;-43
2021/08/08 02:03:39;;;;;;;1.63;0.43;;;;;;;;;;4876439;29;20075;-46
2021/08/08 02:06:10;;;;;;;0.95;0.50;;;;;;;;;;4875699;29;20124;-42
2021/08/08 02:08:43;;;;;;;0.60;0.60;;;;;;;;;;4876719;29;20045;-44
2021/08/08 02:11:14;;;;;;;0.80;0.40;;;;;;;;;;4876558;29;20478;-43
2021/08/08 02:13:57;;;;;;;3.95;0.60;;;;;;;;;;4889011;29;20057;-45
2021/08/08 02:16:25;;;;;;;1.48;0.50;;;;;;;;;;4875912;29;20082;-43
2021/08/08 02:18:55;;;;;;;1.98;0.50;;;;;;;;;;4877209;29;20044;-47
2021/08/08 02:21:29;;;;;;;1.90;0.50;;;;;;;;;;4876227;29;20088;-42
2021/08/08 02:23:57;;;;;;;0.82;0.40;;;;;;;;;;4859997;29;20392;-44
2021/08/08 02:26:26;;;;;;;1.17;0.63;;;;;;;;;;4876116;29;20045;-42
2021/08/08 02:28:57;;;;;;;1.00;0.60;;;;;;;;;;4876064;29;20513;-44
2021/08/08 02:31:25;;;;;;;0.98;0.55;;;;;;;;;;4875924;29;20041;-42
2021/08/08 02:33:52;;;;;;;1.45;0.68;;;;;;;;;;4877012;29;20109;-42
2021/08/08 02:36:19;;;;;;;1.60;0.60;;;;;;;;;;4875297;29;20052;-43
2021/08/08 02:38:48;;;;;;;1.25;0.50;;;;;;;;;;4875953;29;20052;-44
2021/08/08 02:41:15;;;;;;;2.58;0.70;;;;;;;;;;4876997;29;20510;-44
2021/08/08 02:43:42;;;;;;;2.13;0.60;;;;;;;;;;4874161;29;20041;-42
2021/08/08 02:46:09;;;;;;;1.02;0.52;;;;;;;;;;4889729;29;20117;-42
2021/08/08 02:48:36;;;;;;;0.40;0.40;;;;;;;;;;4875945;29;20041;-45
2021/08/08 02:51:06;;;;;;;0.60;0.50;;;;;;;;;;4875843;29;20049;-42
2021/08/08 02:53:33;;;;;;;0.82;0.60;;;;;;;;;;4875665;29;20051;-42
2021/08/08 02:56:00;;;;;;;1.20;0.50;;;;;;;;;;4883104;29;20077;-43
2021/08/08 02:58:29;;;;;;;1.13;0.60;;;;;;;;;;4891382;29;20045;-43
2021/08/08 03:00:56;;;;;;;0.45;0.45;;;;;;;;;;4875713;29;20041;-44
2021/08/08 03:03:23;;;;;;;1.13;0.75;;;;;;;;;;4877020;29;20132;-42
2021/08/08 03:05:50;;;;;;;1.75;0.45;;;;;;;;;;4889302;29;20048;-42
2021/08/08 03:08:17;;;;;;;1.30;1.02;;;;;;;;;;4875656;29;20506;-44
2021/08/08 03:10:44;;;;;;;1.73;1.38;;;;;;;;;;4875767;29;20499;-42
2021/08/08 03:13:11;;;;;;;1.38;0.73;;;;;;;;;;4876694;29;20076;-46
2021/08/08 03:15:41;;;;;;;0.85;0.60;;;;;;;;;;4874806;29;20055;-44
2021/08/08 03:18:07;;;;;;;1.20;0.55;;;;;;;;;;4880136;29;20503;-43
2021/08/08 03:20:36;;;;;;;0.70;0.60;;;;;;;;;;4878846;29;20120;-43
2021/08/08 03:23:03;;;;;;;1.80;0.70;;;;;;;;;;4878906;29;20041;-42
2021/08/08 03:25:30;;;;;;;1.15;0.70;;;;;;;;;;4878242;29;20049;-45
2021/08/08 03:27:57;;;;;;;1.75;0.50;;;;;;;;;;4878787;29;20068;-45
2021/08/08 03:30:24;;;;;;;1.17;0.68;;;;;;;;;;4878876;29;20101;-48
2021/08/08 03:32:51;;;;;;;1.35;0.52;;;;;;;;;;4880213;29;20049;-47
2021/08/08 03:35:18;;;;;;;1.10;0.70;;;;;;;;;;4878182;29;20499;-50
2021/08/08 03:37:45;;;;;;;0.82;0.50;;;;;;;;;;4878661;29;20056;-46
2021/08/08 03:40:12;;;;;;;1.83;1.70;;;;;;;;;;4879788;29;20491;-45
2021/08/08 03:42:43;;;;;;;1.75;1.23;;;;;;;;;;4878539;29;20136;-43
2021/08/08 03:45:10;;;;;;;1.95;1.70;;;;;;;;;;4877576;29;20133;-44
2021/08/08 03:47:37;;;;;;;3.50;2.97;;;;;;;;;;4879248;29;20475;-48
2021/08/08 03:50:06;;;;;;;2.08;1.60;;;;;;;;;;4878414;29;20064;-44
2021/08/08 03:52:33;;;;;;;4.22;3.83;;;;;;;;;;4878261;29;20076;-46
2021/08/08 03:55:00;;;;;;;3.70;2.40;;;;;;;;;;4883244;29;20065;-45
2021/08/08 03:57:27;;;;;;;2.53;1.85;;;;;;;;;;4896928;29;20543;-52
2021/08/08 03:59:58;;;;;;;2.63;2.40;;;;;;;;;;4896616;29;20104;-45
2021/08/08 04:02:25;;;;;;;3.38;2.95;;;;;;;;;;4898248;29;20124;-47
2021/08/08 04:04:52;;;;;;;3.25;2.95;;;;;;;;;;4892147;29;20074;-47
2021/08/08 04:07:19;;;;;;;2.20;1.20;;;;;;;;;;4879338;29;20037;-42
2021/08/08 04:09:46;;;;;;;0.90;0.70;;;;;;;;;;4878021;29;20189;-46
2021/08/08 04:12:12;;;;;;;1.55;0.80;;;;;;;;;;4877838;29;20128;-46
2021/08/08 04:14:42;;;;;;;0.85;0.65;;;;;;;;;;4877398;29;20458;-47
2021/08/08 04:17:09;;;;;;;1.58;0.50;;;;;;;;;;4886619;29;20045;-43
2021/08/08 04:19:36;;;;;;;1.05;0.70;;;;;;;;;;4877904;29;20104;-47
2021/08/08 04:22:03;;;;;;;2.53;0.80;;;;;;;;;;4877843;29;20476;-45
2021/08/08 04:24:30;;;;;;;0.93;0.65;;;;;;;;;;4891341;29;20068;-45
2021/08/08 04:26:57;;;;;;;1.48;0.70;;;;;;;;;;4877550;29;20440;-43
2021/08/08 04:29:24;;;;;;;1.15;0.60;;;;;;;;;;4877383;29;20068;-45
2021/08/08 04:31:51;;;;;;;0.88;0.60;;;;;;;;;;4877548;29;20052;-41
2021/08/08 04:34:18;;;;;;;1.45;0.70;;;;;;;;;;4878458;29;20052;-45
2021/08/08 04:36:45;;;;;;;0.95;0.60;;;;;;;;;;4893149;29;20105;-46
2021/08/08 04:39:12;;;;;;;1.15;0.60;;;;;;;;;;4893087;29;20045;-45
2021/08/08 04:41:39;;;;;;;0.95;0.70;;;;;;;;;;4891713;29;20124;-48
2021/08/08 04:44:06;;;;;;;1.98;0.90;;;;;;;;;;4876882;29;20435;-42
2021/08/08 04:46:33;;;;;;;1.23;0.80;;;;;;;;;;4878201;29;20119;-45
2021/08/08 04:48:59;;;;;;;0.75;0.50;;;;;;;;;;4877365;29;20519;-48
2021/08/08 04:51:26;;;;;;;2.03;0.70;;;;;;;;;;4877396;29;20124;-43
2021/08/08 04:53:53;;;;;;;2.80;0.73;;;;;;;;;;4878540;29;20073;-46
2021/08/08 04:56:20;;;;;;;1.08;0.70;;;;;;;;;;4877313;29;20775;-41
2021/08/08 04:58:47;;;;;;;1.20;0.52;;;;;;;;;;4878585;29;20463;-45
2021/08/08 05:01:14;;;;;;;1.02;0.60;;;;;;;;;;4877190;29;20085;-46
2021/08/08 05:03:42;;;;;;;2.05;0.70;;;;;;;;;;4885452;29;20507;-41
2021/08/08 05:06:08;;;;;;;2.75;0.70;;;;;;;;;;4876398;29;20041;-44
2021/08/08 05:08:36;;;;;;;1.02;0.70;;;;;;;;;;4876932;29;20119;-41
2021/08/08 05:11:02;;;;;;;1.25;0.77;;;;;;;;;;4877000;29;20422;-41
2021/08/08 05:13:30;;;;;;;1.23;0.70;;;;;;;;;;4891219;29;20131;-43
2021/08/08 05:15:58;;;;;;;1.52;0.73;;;;;;;;;;4876109;29;20045;-42
2021/08/08 05:18:26;;;;;;;1.17;0.80;;;;;;;;;;4878059;29;20510;-42
2021/08/08 05:20:53;;;;;;;3.63;1.73;;;;;;;;;;4876844;29;20048;-42
2021/08/08 05:23:19;;;;;;;1.42;0.93;;;;;;;;;;4876596;29;20069;-49
2021/08/08 05:25:46;;;;;;;1.80;0.70;;;;;;;;;;4876314;29;20040;-42
2021/08/08 05:28:13;;;;;;;2.67;1.30;;;;;;;;;;4876881;29;20044;-41
2021/08/08 05:30:40;;;;;;;3.25;2.92;;;;;;;;;;4877775;29;20053;-45
2021/08/08 05:33:07;;;;;;;3.58;3.25;;;;;;;;;;4876945;29;20398;-44
2021/08/08 05:35:35;;;;;;;2.10;1.67;;;;;;;;;;4891354;29;20123;-41
2021/08/08 05:38:01;;;;;;;2.40;0.80;;;;;;;;;;4876575;29;20136;-41
2021/08/08 05:40:28;;;;;;;1.70;0.90;;;;;;;;;;4875338;29;20041;-44
2021/08/08 05:42:55;;;;;;;1.88;1.10;;;;;;;;;;4876228;29;20124;-41
2021/08/08 05:45:22;;;;;;;1.25;0.73;;;;;;;;;;4876989;29;20132;-46
2021/08/08 05:47:51;;;;;;;0.93;0.80;;;;;;;;;;4890210;29;20049;-45
2021/08/08 05:50:22;;;;;;;0.60;0.60;;;;;;;;;;4876329;29;20075;-48
2021/08/08 05:52:51;;;;;;;2.13;0.70;;;;;;;;;;4861150;29;20120;-47
2021/08/08 05:55:19;;;;;;;2.30;0.68;;;;;;;;;;4881561;29;20140;-42
2021/08/08 05:57:46;;;;;;;1.77;0.75;;;;;;;;;;4860772;29;20056;-42
2021/08/08 06:00:14;;;;;;;1.10;0.70;;;;;;;;;;4876441;29;20093;-43
2021/08/08 06:02:41;;;;;;;5.03;1.00;;;;;;;;;;4877400;29;20053;-43
2021/08/08 06:05:10;;;;;;;1.70;1.00;;;;;;;;;;4875829;29;20116;-43
2021/08/08 06:07:38;;;;;;;1.60;0.57;;;;;;;;;;4876209;29;20116;-41
2021/08/08 06:10:06;;;;;;;0.55;0.55;;;;;;;;;;4876120;29;20045;-44
2021/08/08 06:12:33;;;;;;;1.95;0.60;;;;;;;;;;4876149;29;20076;-41
2021/08/08 06:15:00;;;;;;;1.73;0.80;;;;;;;;;;4876588;29;20120;-45
2021/08/08 06:17:29;;;;;;;2.10;0.70;;;;;;;;;;4876056;29;20052;-42
2021/08/08 06:19:56;;;;;;;1.25;0.73;;;;;;;;;;4891740;29;20041;-42
2021/08/08 06:22:23;;;;;;;1.58;0.70;;;;;;;;;;4876000;29;20041;-44
2021/08/08 06:24:51;;;;;;;2.35;0.90;;;;;;;;;;4876388;29;20096;-41
2021/08/08 06:27:17;;;;;;;3.45;1.50;;;;;;;;;;4876052;29;20051;-41
2021/08/08 06:29:45;;;;;;;2.20;1.77;;;;;;;;;;4875895;29;20496;-42
2021/08/08 06:32:11;;;;;;;3.05;1.50;;;;;;;;;;4876048;29;20049;-43
2021/08/08 06:34:38;;;;;;;5.15;1.35;;;;;;;;;;4876189;29;20097;-42
2021/08/08 06:37:05;;;;;;;1.70;0.98;;;;;;;;;;4876107;29;20928;-43
2021/08/08 06:39:32;;;;;;;1.92;1.00;;;;;;;;;;4877112;29;20068;-45
2021/08/08 06:42:00;;;;;;;1.60;1.00;;;;;;;;;;4875638;29;20045;-41
2021/08/08 06:44:33;;;;;;;3.38;1.00;;;;;;;;;;4884934;29;20144;-43
2021/08/08 06:47:00;;;;;;;2.17;0.70;;;;;;;;;;4875717;29;20037;-41
2021/08/08 06:49:28;;;;;;;1.48;1.00;;;;;;;;;;4875914;29;20037;-41
2021/08/08 06:51:55;;;;;;;2.95;1.00;;;;;;;;;;4877852;29;20117;-41
2021/08/08 06:54:23;;;;;;;2.30;0.90;;;;;;;;;;4878529;29;20055;-43
2021/08/08 06:56:50;;;;;;;1.20;0.80;;;;;;;;;;4880663;29;20049;-42
2021/08/08 06:59:16;;;;;;;3.33;1.10;;;;;;;;;;4864141;29;20049;-42
2021/08/08 07:01:43;;;;;;;1.17;0.93;;;;;;;;;;4879194;29;20218;-45
2021/08/08 07:04:10;;;;;;;4.07;2.13;;;;;;;;;;4886907;29;20079;-42
2021/08/08 07:06:37;;;;;;;2.25;1.33;;;;;;;;;;4879177;29;20072;-48
2021/08/08 07:09:07;;;;;;;3.95;1.83;;;;;;;;;;4878992;29;20048;-44
2021/08/08 07:11:35;;;;;;;2.47;1.17;;;;;;;;;;4878750;29;20108;-47
2021/08/08 07:14:05;;;;;;;1.02;0.80;;;;;;;;;;4863235;29;20479;-48
2021/08/08 07:16:33;;;;;;;1.48;0.70;;;;;;;;;;4870464;29;20092;-41
2021/08/08 07:19:00;;;;;;;1.35;0.80;;;;;;;;;;4897762;29;20044;-45
2021/08/08 07:21:27;;;;;;;2.55;0.93;;;;;;;;;;4897616;29;20135;-42
2021/08/08 07:24:11;;;;;;;1.50;0.90;;;;;;;;;;4896781;29;20036;-47
2021/08/08 07:26:38;;;;;;;1.65;1.02;;;;;;;;;;4882762;29;20105;-45
2021/08/08 07:29:05;;;;;;;1.13;0.90;;;;;;;;;;4878850;29;20105;-42
2021/08/08 07:31:52;;;;;;;2.72;0.85;;;;;;;;;;4878672;29;20057;-41
2021/08/08 07:34:19;;;;;;;2.15;0.82;;;;;;;;;;4878075;29;20060;-50
2021/08/08 07:36:46;;;;;;;1.90;0.77;;;;;;;;;;4896929;29;20127;-43
2021/08/08 07:39:13;;;;;;;2.60;1.50;;;;;;;;;;4898366;29;20044;-42
2021/08/08 07:41:40;;;;;;;2.78;1.25;;;;;;;;;;4898406;29;20044;-42
2021/08/08 07:44:07;;;;;;;5.65;3.72;;;;;;;;;;4883430;29;20051;-45
2021/08/08 07:46:33;;;;;;;3.58;1.55;;;;;;;;;;4878245;29;20041;-41
2021/08/08 07:49:01;;;;;;;1.33;0.90;;;;;;;;;;4878499;29;20471;-47
2021/08/08 07:51:28;;;;;;;5.22;2.97;;;;;;;;;;4862804;29;20049;-43
2021/08/08 07:53:55;;;;;;;4.85;2.03;;;;;;;;;;4878188;29;20101;-47
2021/08/08 07:56:22;;;;;;;2.47;1.63;;;;;;;;;;4880999;29;20056;-43
2021/08/08 07:58:48;;;;;;;1.42;0.80;;;;;;;;;;4878283;29;20100;-48
2021/08/08 08:01:16;;;;;;;2.88;1.60;;;;;;;;;;4878317;29;20101;-45
2021/08/08 08:03:43;;;;;;;2.70;1.48;;;;;;;;;;4877250;29;20551;-43
2021/08/08 08:06:10;;;;;;;4.32;2.80;;;;;;;;;;4878335;29;20068;-45
2021/08/08 08:08:37;;;;;;;4.10;2.22;;;;;;;;;;4862649;29;20048;-47
2021/08/08 08:11:09;;;;;;;2.15;1.05;;;;;;;;;;4862620;29;20056;-42
2021/08/08 08:13:36;;;;;;;1.63;0.70;;;;;;;;;;4878051;29;20048;-43
2021/08/08 08:16:03;;;;;;;4.90;1.00;;;;;;;;;;4879474;29;20067;-45
2021/08/08 08:18:39;;;;;;;3.30;0.98;;;;;;;;;;4896903;29;20044;-42
2021/08/08 08:21:06;;;;;;;2.70;0.85;;;;;;;;;;4896557;29;20542;-46
2021/08/08 08:23:32;;;;;;;1.70;0.80;;;;;;;;;;4896512;29;20040;-43
2021/08/08 08:25:59;;;;;;;2.22;0.90;;;;;;;;;;4877119;29;20041;-43
2021/08/08 08:28:29;;;;;;;2.22;0.68;;;;;;;;;;4877852;29;20041;-45
2021/08/08 08:30:57;;;;;;;1.20;0.80;;;;;;;;;;4877812;29;20055;-45
2021/08/08 08:33:24;;;;;;;2.08;0.73;;;;;;;;;;4862326;29;20049;-43
2021/08/08 08:35:51;;;;;;;2.15;0.70;;;;;;;;;;4877925;29;20464;-43
2021/08/08 08:38:18;;;;;;;2.97;1.13;;;;;;;;;;4878791;29;20080;-47
2021/08/08 08:40:47;;;;;;;2.38;0.80;;;;;;;;;;4878914;29;20517;-43
2021/08/08 08:43:14;;;;;;;1.85;0.82;;;;;;;;;;4877100;29;20053;-43
2021/08/08 08:45:43;;;;;;;1.02;0.73;;;;;;;;;;4876578;29;20041;-46
2021/08/08 08:48:11;;;;;;;6.25;3.72;;;;;;;;;;4877554;29;20049;-45
2021/08/08 08:50:40;;;;;;;1.75;1.15;;;;;;;;;;4877244;29;20041;-45
2021/08/08 08:53:09;;;;;;;2.78;1.60;;;;;;;;;;4877302;29;20041;-45
2021/08/08 08:55:37;;;;;;;2.80;0.80;;;;;;;;;;4876562;29;20120;-43
2021/08/08 08:58:05;;;;;;;2.78;1.50;;;;;;;;;;4877315;29;20053;-49
2021/08/08 09:00:32;;;;;;;1.80;0.98;;;;;;;;;;4878743;29;20424;-43
2021/08/08 09:03:00;;;;;;;1.25;0.82;;;;;;;;;;4877578;29;20037;-42
2021/08/08 09:05:28;;;;;;;2.38;1.00;;;;;;;;;;4890599;29;20116;-47
2021/08/08 09:07:55;;;;;;;2.55;0.85;;;;;;;;;;4877332;29;20045;-46
2021/08/08 09:10:23;;;;;;;2.45;1.10;;;;;;;;;;4877188;29;20075;-47
2021/08/08 09:12:57;;;;;;;2.50;0.90;;;;;;;;;;4876856;29;20555;-47
2021/08/08 09:15:33;;;;;;;1.90;0.90;;;;;;;;;;4876437;29;20048;-47
2021/08/08 09:18:09;;;;;;;2.10;1.00;;;;;;;;;;4877451;29;20485;-48
2021/08/08 09:20:37;;;;;;;2.67;1.00;;;;;;;;;;4876879;29;20499;-48
2021/08/08 09:23:04;;;;;;;3.83;1.17;;;;;;;;;;4876738;29;20100;-46
2021/08/08 09:25:31;;;;;;;2.53;0.95;;;;;;;;;;4895340;23;20052;-43
2021/08/08 09:28:06;;;;;;;2.63;0.88;;;;;;;;;;4862073;29;20123;-43
2021/08/08 09:30:35;;;;;;;1.65;1.00;;;;;;;;;;4861689;29;20491;-43
2021/08/08 09:33:06;;;;;;;3.50;1.00;;;;;;;;;;4877034;29;20158;-43
2021/08/08 09:35:33;;;;;;;3.00;0.57;;;;;;;;;;4875735;29;20075;-47
2021/08/08 09:38:01;;;;;;;3.40;0.80;;;;;;;;;;4878293;29;20045;-45
2021/08/08 09:40:28;;;;;;;1.10;0.63;;;;;;;;;;4878299;29;20132;-43
2021/08/08 09:42:55;;;;;;;2.03;0.90;;;;;;;;;;4876333;29;20140;-44
2021/08/08 09:45:33;;;;;;;2.88;0.98;;;;;;;;;;4876320;29;20132;-44
2021/08/08 09:48:00;;;;;;;1.77;0.85;;;;;;;;;;4877187;29;20037;-44
2021/08/08 09:50:30;;;;;;;1.35;0.95;;;;;;;;;;4878298;29;20400;-45
2021/08/08 09:52:58;;;;;;;2.53;0.70;;;;;;;;;;4877869;29;20131;-48
2021/08/08 09:55:35;;;;;;;1.80;0.90;;;;;;;;;;4876126;29;20508;-43
2021/08/08 09:58:03;;;;;;;2.35;0.85;;;;;;;;;;4878123;29;20049;-44
2021/08/08 10:00:36;;;;;;;2.92;1.00;;;;;;;;;;4877901;29;20511;-45
2021/08/08 10:03:05;;;;;;;1.80;0.80;;;;;;;;;;4877337;29;20045;-44
2021/08/08 10:05:38;;;;;;;2.25;0.90;;;;;;;;;;4857395;29;20128;-43
2021/08/08 10:08:09;;;;;;;0.55;0.52;;;;;;;;;;4858107;29;20177;-43
2021/08/08 10:10:37;;;;;;;1.55;0.70;;;;;;;;;;4859346;29;20053;-44
2021/08/08 10:13:22;;;;;;;2.92;1.65;;;;;;;;;;4858697;29;20056;-43
2021/08/08 10:15:50;;;;;;;2.28;1.40;;;;;;;;;;4875024;29;20464;-45
2021/08/08 10:18:19;;;;;;;4.40;1.00;;;;;;;;;;4859196;29;20460;-47
2021/08/08 10:20:46;;;;;;;1.48;0.63;;;;;;;;;;4859191;29;20063;-44
2021/08/08 10:23:14;;;;;;;1.95;0.90;;;;;;;;;;4858872;29;20076;-48
2021/08/08 10:25:43;;;;;;;3.17;0.65;;;;;;;;;;4860945;29;20061;-45
2021/08/08 10:28:11;;;;;;;1.13;0.60;;;;;;;;;;4881546;29;20448;-45
2021/08/08 10:30:38;;;;;;;1.92;0.93;;;;;;;;;;4880106;29;20045;-44
2021/08/08 10:33:05;;;;;;;2.88;1.30;;;;;;;;;;4880202;29;20045;-44
2021/08/08 10:35:38;;;;;;;31.52;25.15;;;;;;;;;;4878678;29;20057;-44
2021/08/08 10:38:05;;;;;;;;;;;;;;;;;;4881684;29;20052;-45
2021/08/08 10:40:33;;;;;;;5.20;2.97;;;;;;;;;;4881155;29;20457;-44
2021/08/08 10:43:01;;;;;;;1.90;1.30;;;;;;;;;;4880001;29;20480;-44
2021/08/08 10:45:28;;;;;;;3.00;1.98;;;;;;;;;;4881166;29;20048;-44
2021/08/08 10:47:59;;;;;;;2.53;1.63;;;;;;;;;;4879369;29;20143;-46
2021/08/08 10:50:44;;;;;;;1.55;1.02;;;;;;;;;;4880859;29;20517;-46
2021/08/08 10:53:24;;;;;;;4.55;3.65;;;;;;;;;;4880938;29;20517;-43
2021/08/08 10:56:07;;;;;;;65.25;47.92;;;;;;;;;;4864157;29;20057;-44
2021/08/08 10:58:38;;;;;;;3.40;1.08;;;;;;;;;;4862303;29;20132;-46
2021/08/08 11:01:15;;;;;;;2.70;0.80;;;;;;;;;;4862376;29;20049;-46
2021/08/08 11:03:55;;;;;;;6.35;3.47;;;;;;;;;;4861921;29;20045;-43
2021/08/08 11:06:26;;;;;;;2.35;1.33;;;;;;;;;;4860715;29;20125;-44
2021/08/08 11:08:54;;;;;;;2.38;0.90;;;;;;;;;;4862458;29;20038;-44
2021/08/08 11:11:25;;;;;;;1.52;0.77;;;;;;;;;;4862948;29;20048;-44
2021/08/08 11:13:52;;;;;;;2.40;1.35;;;;;;;;;;4878483;29;20075;-46
2021/08/08 11:16:19;;;;;;;1.60;0.80;;;;;;;;;;4874113;29;20038;-45
2021/08/08 11:18:56;;;;;;;1.48;1.15;;;;;;;;;;4862093;29;20057;-44
2021/08/08 11:21:24;;;;;;;2.30;1.60;;;;;;;;;;4861938;29;20422;-44
2021/08/08 11:23:54;;;;;;;2.22;0.80;;;;;;;;;;4861627;29;20602;-48
2021/08/08 11:26:21;;;;;;;2.80;1.50;;;;;;;;;;4874323;29;20132;-45
2021/08/08 11:28:58;;;;;;;1.45;0.80;;;;;;;;;;4880307;29;20407;-48
2021/08/08 11:31:32;;;;;;;3.08;0.77;;;;;;;;;;4880497;29;20037;-44
2021/08/08 11:34:00;;;;;;;2.42;0.82;;;;;;;;;;4878149;29;20049;-46
2021/08/08 11:36:32;;;;;;;2.15;0.52;;;;;;;;;;4879087;29;20045;-45
2021/08/08 11:39:00;;;;;;;2.17;1.02;;;;;;;;;;4878979;29;20068;-46
2021/08/08 11:41:29;;;;;;;3.20;0.82;;;;;;;;;;4880059;29;20052;-46
2021/08/08 11:44:03;;;;;;;24.30;18.83;;;;;;;;;;4878157;29;20044;-45
2021/08/08 11:46:30;;;;;;;7.90;4.53;;;;;;;;;;4878045;29;20049;-46
2021/08/08 11:48:59;;;;;;;4.72;2.97;;;;;;;;;;4880029;29;20495;-47
2021/08/08 11:51:26;;;;;;;3.28;1.08;;;;;;;;;;4879988;29;20049;-44
2021/08/08 11:53:54;;;;;;;1.98;1.10;;;;;;;;;;4879865;29;20049;-48
2021/08/08 11:56:22;;;;;;;10.23;6.75;;;;;;;;;;4877853;29;20479;-44
2021/08/08 11:58:50;;;;;;;13.00;10.82;;;;;;;;;;4879831;29;20128;-45
2021/08/08 12:01:20;;;;;;;3.70;2.60;;;;;;;;;;4879872;29;20061;-46
2021/08/08 12:03:47;;;;;;;5.95;3.10;;;;;;;;;;4877839;29;20037;-46
2021/08/08 12:06:14;;;;;;;6.30;3.60;;;;;;;;;;4879217;29;20495;-45
2021/08/08 12:08:41;;;;;;;1.48;0.98;;;;;;;;;;4879724;29;20049;-45
2021/08/08 12:11:08;;;;;;;3.97;2.30;;;;;;;;;;4879849;29;20052;-45
2021/08/08 12:13:34;;;;;;;6.32;4.95;;;;;;;;;;4878091;29;20384;-44
2021/08/08 12:16:14;;;;;;;2.00;0.80;;;;;;;;;;4878055;29;20055;-44
2021/08/08 12:18:41;;;;;;;4.00;1.25;;;;;;;;;;4879830;29;20487;-44
2021/08/08 12:21:15;;;;;;;3.42;1.50;;;;;;;;;;4879653;29;20396;-44
2021/08/08 12:23:42;;;;;;;2.15;0.80;;;;;;;;;;4879360;29;20051;-44
2021/08/08 12:26:09;;;;;;;1.52;0.90;;;;;;;;;;4869140;29;20522;-46
2021/08/08 12:28:35;;;;;;;2.00;0.90;;;;;;;;;;4860859;29;20037;-45
2021/08/08 12:31:09;;;;;;;5.07;2.83;;;;;;;;;;4859655;29;20052;-44
2021/08/08 12:33:37;;;;;;;4.07;1.73;;;;;;;;;;4860889;29;20117;-45
2021/08/08 12:36:11;;;;;;;1.52;0.60;;;;;;;;;;4860138;29;20056;-45
2021/08/08 12:38:47;;;;;;;1.52;0.63;;;;;;;;;;4860739;29;20141;-47
2021/08/08 12:41:24;;;;;;;7.18;3.63;;;;;;;;;;4860503;29;20073;-44
2021/08/08 12:43:55;;;;;;;3.13;1.80;;;;;;;;;;4860592;29;20105;-48
2021/08/08 12:46:27;;;;;;;1.55;0.70;;;;;;;;;;4864316;29;20411;-44
2021/08/08 12:48:58;;;;;;;3.65;1.60;;;;;;;;;;4877597;29;20053;-45
2021/08/08 12:51:25;;;;;;;2.90;1.00;;;;;;;;;;4879002;29;20049;-44
2021/08/08 12:53:52;;;;;;;1.17;0.80;;;;;;;;;;4879342;29;20471;-44
2021/08/08 12:56:20;;;;;;;2.38;1.05;;;;;;;;;;4869715;29;20052;-44
2021/08/08 12:58:51;;;;;;;3.92;0.80;;;;;;;;;;4860300;29;20599;-47
2021/08/08 13:01:21;;;;;;;2.38;0.80;;;;;;;;;;4860431;29;20136;-46
2021/08/08 13:03:49;;;;;;;4.13;1.10;;;;;;;;;;4860242;29;20045;-44
2021/08/08 13:06:15;;;;;;;2.13;0.88;;;;;;;;;;4858610;29;20408;-43
2021/08/08 13:08:42;;;;;;;3.55;1.02;;;;;;;;;;4860187;29;20067;-47
2021/08/08 13:11:09;;;;;;;2.83;1.30;;;;;;;;;;4860455;29;20053;-45
2021/08/08 13:13:36;;;;;;;5.75;3.28;;;;;;;;;;4862392;29;20060;-47
2021/08/08 13:16:03;;;;;;;2.17;0.88;;;;;;;;;;4875245;29;20104;-45
2021/08/08 13:18:31;;;;;;;6.03;3.88;;;;;;;;;;4878799;29;20057;-43
2021/08/08 13:20:58;;;;;;;3.63;1.70;;;;;;;;;;4877216;29;20180;-44
2021/08/08 13:23:25;;;;;;;2.35;1.00;;;;;;;;;;4878260;29;20136;-47
2021/08/08 13:25:52;;;;;;;2.13;1.30;;;;;;;;;;4876280;29;20418;-45
2021/08/08 13:28:18;;;;;;;4.65;0.90;;;;;;;;;;4878454;29;20044;-46
2021/08/08 13:30:45;;;;;;;2.03;1.10;;;;;;;;;;4878485;29;20068;-45
2021/08/08 13:33:12;;;;;;;2.78;1.00;;;;;;;;;;4878528;29;20166;-48
2021/08/08 13:35:38;;;;;;;3.95;2.00;;;;;;;;;;4860822;29;20076;-47
2021/08/08 13:38:05;;;;;;;3.88;1.45;;;;;;;;;;4859761;29;20061;-47
2021/08/08 13:40:32;;;;;;;3.45;0.90;;;;;;;;;;4859715;29;20121;-44
2021/08/08 13:43:00;;;;;;;2.17;1.00;;;;;;;;;;4859669;29;20053;-46
2021/08/08 13:45:27;;;;;;;1.63;0.80;;;;;;;;;;4876210;29;20515;-46
2021/08/08 13:47:54;;;;;;;2.55;1.00;;;;;;;;;;4860461;29;20046;-44
2021/08/08 13:50:21;;;;;;;2.60;1.02;;;;;;;;;;4858377;29;20050;-45
2021/08/08 13:52:48;;;;;;;1.10;0.70;;;;;;;;;;4859610;29;20061;-46
2021/08/08 13:55:17;;;;;;;3.13;0.98;;;;;;;;;;4861892;29;20093;-44
2021/08/08 13:57:44;;;;;;;2.85;1.70;;;;;;;;;;4878155;29;20193;-44
2021/08/08 14:00:11;;;;;;;1.90;1.05;;;;;;;;;;4877820;29;20057;-44
2021/08/08 14:02:40;;;;;;;6.38;1.13;;;;;;;;;;4877977;29;20045;-49
2021/08/08 14:05:08;;;;;;;1.70;0.80;;;;;;;;;;4869211;29;20049;-47
2021/08/08 14:07:34;;;;;;;2.25;1.23;;;;;;;;;;4859580;29;20042;-46
2021/08/08 14:10:02;;;;;;;2.45;1.08;;;;;;;;;;4859634;29;20561;-45
2021/08/08 14:12:29;;;;;;;4.00;1.60;;;;;;;;;;4859499;29;20052;-48
2021/08/08 14:14:56;;;;;;;3.22;0.80;;;;;;;;;;4871026;29;20116;-46
2021/08/08 14:17:23;;;;;;;1.70;0.90;;;;;;;;;;4850554;29;20512;-46
2021/08/08 14:19:49;;;;;;;3.70;1.73;;;;;;;;;;4841137;29;20077;-45
2021/08/08 14:22:16;;;;;;;4.20;1.85;;;;;;;;;;4841023;29;20132;-47
2021/08/08 14:24:44;;;;;;;3.97;1.55;;;;;;;;;;4848068;29;20141;-46
2021/08/08 14:27:10;;;;;;;4.82;2.13;;;;;;;;;;4843173;29;20112;-46
2021/08/08 14:29:37;;;;;;;9.70;6.65;;;;;;;;;;4859615;29;20049;-45
2021/08/08 14:32:04;;;;;;;3.78;1.70;;;;;;;;;;4859617;29;20052;-45
2021/08/08 14:34:31;;;;;;;2.63;1.15;;;;;;;;;;4858229;29;20050;-46
2021/08/08 14:36:58;;;;;;;3.78;1.05;;;;;;;;;;4859400;29;20144;-47
2021/08/08 14:39:28;;;;;;;2.22;1.50;;;;;;;;;;4859110;29;20054;-44
2021/08/08 14:41:57;;;;;;;3.22;1.63;;;;;;;;;;4859225;29;20231;-44
2021/08/08 14:44:30;;;;;;;3.25;1.20;;;;;;;;;;4871194;29;20097;-44
2021/08/08 14:46:57;;;;;;;2.78;2.10;;;;;;;;;;4876346;29;20064;-44
2021/08/08 14:49:24;;;;;;;2.97;1.20;;;;;;;;;;4876555;29;20398;-44
2021/08/08 14:51:50;;;;;;;3.45;1.77;;;;;;;;;;4877470;29;20156;-45